This is the latest recevied weather packets stored in our database for station/object SQ9SMC-13. If no packets are shown the sender has not sent any weather packets the latest 10 day(s).
| Time | Temp. | Humidity | Pressure | Rain* | Wind** | Luminosity | Snow |
|---|---|---|---|---|---|---|---|
| 1777931703 | 18.33° C | 39% | 1014.8 hPa | 0 mm | - | 0 W/m² | - |
| 1777931402 | 18.33° C | 39% | 1014.6 hPa | 0 mm | - | 0 W/m² | - |
| 1777931103 | 17.78° C | 42% | 1014.6 hPa | 0 mm | - | 0 W/m² | - |
| 1777930804 | 17.78° C | 42% | 1014.6 hPa | 0 mm | - | 0 W/m² | - |
| 1777930504 | 17.78° C | 44% | 1014.6 hPa | 0 mm | - | 0 W/m² | - |
| 1777930203 | 17.22° C | 47% | 1014.7 hPa | 0 mm | - | 0 W/m² | - |
| 1777929903 | 16.11° C | 50% | 1014.8 hPa | 0 mm | - | 0 W/m² | - |
| 1777929603 | 14.44° C | 56% | 1014.6 hPa | 0 mm | - | 0 W/m² | - |
| 1777929304 | 12.22° C | 69% | 1014.7 hPa | 0 mm | - | 0 W/m² | - |
| 1777929002 | 11.11° C | 78% | 1014.6 hPa | 0 mm | - | 0 W/m² | - |
| 1777928703 | 10.56° C | 79% | 1014.6 hPa | 0 mm | - | 0 W/m² | - |
| 1777928407 | 11.11° C | 79% | 1014.7 hPa | 0 mm | - | 0 W/m² | - |
| 1777928102 | 11.11° C | 77% | 1014.7 hPa | 0 mm | - | 0 W/m² | - |
| 1777927803 | 11.67° C | 76% | 1014.8 hPa | 0 mm | - | 0 W/m² | - |
| 1777927503 | 11.67° C | 75% | 1014.6 hPa | 0 mm | - | 0 W/m² | - |
| 1777927203 | 11.67° C | 75% | 1014.5 hPa | 0 mm | - | 0 W/m² | - |
| 1777926903 | 11.67° C | 75% | 1014.4 hPa | 0 mm | - | 0 W/m² | - |
| 1777926603 | 12.22° C | 73% | 1014.5 hPa | 0 mm | - | 0 W/m² | - |
| 1777926304 | 12.22° C | 73% | 1014.6 hPa | 0 mm | - | 0 W/m² | - |
| 1777926003 | 12.78° C | 72% | 1014.6 hPa | 0 mm | - | 0 W/m² | - |
| 1777925705 | 12.78° C | 71% | 1014.6 hPa | 0 mm | - | 0 W/m² | - |
| 1777925404 | 12.78° C | 69% | 1014.4 hPa | 0 mm | - | 0 W/m² | - |
| 1777925104 | 13.33° C | 69% | 1014.6 hPa | 0 mm | - | 0 W/m² | - |
| 1777924804 | 13.33° C | 67% | 1014.7 hPa | 0 mm | - | 0 W/m² | - |
| 1777924503 | 13.89° C | 67% | 1014.4 hPa | 0 mm | - | 0 W/m² | - |
* Rain latest hour (hover to see other rain measurements)
** Current wind speed in m/s (hover to see current wind gust speed)